sensor_id;sensor_type;location;lat;lon;timestamp;P1;durP1;ratioP1;P2;durP2;ratioP2
29908;SDS011;36247;51.952;6.146;2023-03-01T00:00:36;12.13;;;8.70;;
29908;SDS011;36247;51.952;6.146;2023-03-01T00:03:02;12.63;;;8.70;;
29908;SDS011;36247;51.952;6.146;2023-03-01T00:05:28;11.68;;;8.82;;
29908;SDS011;36247;51.952;6.146;2023-03-01T00:07:53;15.15;;;8.65;;
29908;SDS011;36247;51.952;6.146;2023-03-01T00:10:19;13.80;;;8.27;;
29908;SDS011;36247;51.952;6.146;2023-03-01T00:12:44;12.15;;;8.45;;
29908;SDS011;36247;51.952;6.146;2023-03-01T00:15:09;11.52;;;8.18;;
29908;SDS011;36247;51.952;6.146;2023-03-01T00:17:35;13.52;;;8.82;;
29908;SDS011;36247;51.952;6.146;2023-03-01T00:20:00;10.95;;;8.13;;
29908;SDS011;36247;51.952;6.146;2023-03-01T00:22:26;11.75;;;8.73;;
29908;SDS011;36247;51.952;6.146;2023-03-01T00:24:53;13.40;;;8.98;;
29908;SDS011;36247;51.952;6.146;2023-03-01T00:27:19;11.07;;;8.48;;
29908;SDS011;36247;51.952;6.146;2023-03-01T00:29:44;11.50;;;8.52;;
29908;SDS011;36247;51.952;6.146;2023-03-01T00:32:10;14.68;;;9.13;;
29908;SDS011;36247;51.952;6.146;2023-03-01T00:34:35;11.20;;;8.50;;
29908;SDS011;36247;51.952;6.146;2023-03-01T00:37:00;12.60;;;9.20;;
29908;SDS011;36247;51.952;6.146;2023-03-01T00:39:30;12.35;;;8.30;;
29908;SDS011;36247;51.952;6.146;2023-03-01T00:41:57;11.98;;;8.90;;
29908;SDS011;36247;51.952;6.146;2023-03-01T00:44:23;12.20;;;8.60;;
29908;SDS011;36247;51.952;6.146;2023-03-01T00:46:48;11.55;;;8.55;;
29908;SDS011;36247;51.952;6.146;2023-03-01T00:49:14;12.80;;;8.05;;
29908;SDS011;36247;51.952;6.146;2023-03-01T00:51:39;13.38;;;10.18;;
29908;SDS011;36247;51.952;6.146;2023-03-01T00:54:09;12.13;;;8.75;;
29908;SDS011;36247;51.952;6.146;2023-03-01T00:56:34;11.65;;;8.82;;
29908;SDS011;36247;51.952;6.146;2023-03-01T00:59:00;13.90;;;9.02;;
29908;SDS011;36247;51.952;6.146;2023-03-01T01:01:27;16.00;;;8.98;;
29908;SDS011;36247;51.952;6.146;2023-03-01T01:03:56;11.63;;;8.73;;
29908;SDS011;36247;51.952;6.146;2023-03-01T01:06:25;14.98;;;9.38;;
29908;SDS011;36247;51.952;6.146;2023-03-01T01:09:02;10.82;;;8.18;;
29908;SDS011;36247;51.952;6.146;2023-03-01T01:11:29;12.25;;;8.73;;
29908;SDS011;36247;51.952;6.146;2023-03-01T01:13:55;11.18;;;8.45;;
29908;SDS011;36247;51.952;6.146;2023-03-01T01:16:21;14.25;;;8.80;;
29908;SDS011;36247;51.952;6.146;2023-03-01T01:18:48;12.23;;;8.70;;
29908;SDS011;36247;51.952;6.146;2023-03-01T01:21:15;12.05;;;8.95;;
29908;SDS011;36247;51.952;6.146;2023-03-01T01:23:42;16.80;;;9.25;;
29908;SDS011;36247;51.952;6.146;2023-03-01T01:26:10;15.60;;;9.15;;
29908;SDS011;36247;51.952;6.146;2023-03-01T01:28:38;14.13;;;9.35;;
29908;SDS011;36247;51.952;6.146;2023-03-01T01:31:04;12.15;;;10.15;;
29908;SDS011;36247;51.952;6.146;2023-03-01T01:33:30;16.00;;;10.02;;
29908;SDS011;36247;51.952;6.146;2023-03-01T01:35:56;14.75;;;9.50;;
29908;SDS011;36247;51.952;6.146;2023-03-01T01:38:21;13.75;;;9.10;;
29908;SDS011;36247;51.952;6.146;2023-03-01T01:40:49;12.95;;;9.43;;
29908;SDS011;36247;51.952;6.146;2023-03-01T01:43:34;12.25;;;9.73;;
29908;SDS011;36247;51.952;6.146;2023-03-01T01:46:03;14.57;;;9.50;;
29908;SDS011;36247;51.952;6.146;2023-03-01T01:48:39;14.95;;;10.30;;
29908;SDS011;36247;51.952;6.146;2023-03-01T01:51:13;25.67;;;11.38;;
29908;SDS011;36247;51.952;6.146;2023-03-01T01:53:50;16.45;;;10.38;;
29908;SDS011;36247;51.952;6.146;2023-03-01T01:56:20;19.13;;;11.57;;
29908;SDS011;36247;51.952;6.146;2023-03-01T01:58:48;17.33;;;11.43;;
29908;SDS011;36247;51.952;6.146;2023-03-01T02:01:14;16.13;;;10.90;;
29908;SDS011;36247;51.952;6.146;2023-03-01T02:03:40;18.52;;;12.10;;
29908;SDS011;36247;51.952;6.146;2023-03-01T02:06:18;15.57;;;11.60;;
29908;SDS011;36247;51.952;6.146;2023-03-01T02:08:54;16.73;;;11.48;;
29908;SDS011;36247;51.952;6.146;2023-03-01T02:11:25;16.98;;;11.55;;
29908;SDS011;36247;51.952;6.146;2023-03-01T02:13:52;18.80;;;11.60;;
29908;SDS011;36247;51.952;6.146;2023-03-01T02:16:19;17.75;;;11.40;;
29908;SDS011;36247;51.952;6.146;2023-03-01T02:18:45;16.15;;;11.57;;
29908;SDS011;36247;51.952;6.146;2023-03-01T02:21:21;21.15;;;12.70;;
29908;SDS011;36247;51.952;6.146;2023-03-01T02:23:50;19.15;;;12.75;;
29908;SDS011;36247;51.952;6.146;2023-03-01T02:29:05;18.33;;;11.60;;
29908;SDS011;36247;51.952;6.146;2023-03-01T02:31:31;17.55;;;12.02;;
29908;SDS011;36247;51.952;6.146;2023-03-01T02:36:49;15.52;;;10.80;;
29908;SDS011;36247;51.952;6.146;2023-03-01T02:39:21;17.40;;;11.25;;
29908;SDS011;36247;51.952;6.146;2023-03-01T02:41:54;18.80;;;12.02;;
29908;SDS011;36247;51.952;6.146;2023-03-01T02:44:21;23.40;;;12.52;;
29908;SDS011;36247;51.952;6.146;2023-03-01T02:46:48;15.25;;;11.02;;
29908;SDS011;36247;51.952;6.146;2023-03-01T02:49:26;17.00;;;11.90;;
29908;SDS011;36247;51.952;6.146;2023-03-01T02:54:46;20.85;;;12.23;;
29908;SDS011;36247;51.952;6.146;2023-03-01T02:57:15;20.90;;;12.13;;
29908;SDS011;36247;51.952;6.146;2023-03-01T02:59:42;18.05;;;12.07;;
29908;SDS011;36247;51.952;6.146;2023-03-01T03:02:19;17.02;;;11.48;;
29908;SDS011;36247;51.952;6.146;2023-03-01T03:04:47;18.63;;;11.18;;
29908;SDS011;36247;51.952;6.146;2023-03-01T03:07:12;17.33;;;11.77;;
29908;SDS011;36247;51.952;6.146;2023-03-01T03:09:39;17.92;;;11.45;;
29908;SDS011;36247;51.952;6.146;2023-03-01T03:12:04;19.85;;;11.75;;
29908;SDS011;36247;51.952;6.146;2023-03-01T03:14:30;17.08;;;10.70;;
29908;SDS011;36247;51.952;6.146;2023-03-01T03:16:59;15.88;;;10.45;;
29908;SDS011;36247;51.952;6.146;2023-03-01T03:19:25;23.40;;;11.30;;
29908;SDS011;36247;51.952;6.146;2023-03-01T03:21:50;15.50;;;10.70;;
29908;SDS011;36247;51.952;6.146;2023-03-01T03:24:16;15.88;;;11.35;;
29908;SDS011;36247;51.952;6.146;2023-03-01T03:26:42;16.00;;;10.70;;
29908;SDS011;36247;51.952;6.146;2023-03-01T03:29:07;15.90;;;12.38;;
29908;SDS011;36247;51.952;6.146;2023-03-01T03:31:33;17.63;;;12.27;;
29908;SDS011;36247;51.952;6.146;2023-03-01T03:33:58;17.33;;;10.50;;
29908;SDS011;36247;51.952;6.146;2023-03-01T03:36:24;16.80;;;11.43;;
29908;SDS011;36247;51.952;6.146;2023-03-01T03:38:50;15.43;;;11.45;;
29908;SDS011;36247;51.952;6.146;2023-03-01T03:41:16;17.48;;;11.40;;
29908;SDS011;36247;51.952;6.146;2023-03-01T03:43:43;16.63;;;12.43;;
29908;SDS011;36247;51.952;6.146;2023-03-01T03:46:09;18.27;;;11.70;;
29908;SDS011;36247;51.952;6.146;2023-03-01T03:48:36;19.50;;;12.20;;
29908;SDS011;36247;51.952;6.146;2023-03-01T03:51:09;16.60;;;11.68;;
29908;SDS011;36247;51.952;6.146;2023-03-01T03:53:36;16.90;;;11.90;;
29908;SDS011;36247;51.952;6.146;2023-03-01T03:56:01;18.65;;;12.25;;
29908;SDS011;36247;51.952;6.146;2023-03-01T03:58:27;17.70;;;10.85;;
29908;SDS011;36247;51.952;6.146;2023-03-01T04:00:53;15.98;;;11.43;;
29908;SDS011;36247;51.952;6.146;2023-03-01T04:03:24;19.98;;;12.48;;
29908;SDS011;36247;51.952;6.146;2023-03-01T04:05:50;15.52;;;10.38;;
29908;SDS011;36247;51.952;6.146;2023-03-01T04:08:17;14.90;;;10.50;;
29908;SDS011;36247;51.952;6.146;2023-03-01T04:10:46;18.05;;;11.52;;
29908;SDS011;36247;51.952;6.146;2023-03-01T04:13:14;20.65;;;11.40;;
29908;SDS011;36247;51.952;6.146;2023-03-01T04:15:42;21.75;;;11.15;;
29908;SDS011;36247;51.952;6.146;2023-03-01T04:18:08;15.35;;;11.02;;
29908;SDS011;36247;51.952;6.146;2023-03-01T04:20:37;15.52;;;11.60;;
29908;SDS011;36247;51.952;6.146;2023-03-01T04:23:06;14.82;;;10.15;;
29908;SDS011;36247;51.952;6.146;2023-03-01T04:25:42;18.73;;;11.82;;
29908;SDS011;36247;51.952;6.146;2023-03-01T04:28:14;18.48;;;11.50;;
29908;SDS011;36247;51.952;6.146;2023-03-01T04:30:40;20.45;;;11.55;;
29908;SDS011;36247;51.952;6.146;2023-03-01T04:33:10;15.43;;;11.48;;
29908;SDS011;36247;51.952;6.146;2023-03-01T04:35:36;17.92;;;11.00;;
29908;SDS011;36247;51.952;6.146;2023-03-01T04:38:03;15.77;;;11.18;;
29908;SDS011;36247;51.952;6.146;2023-03-01T04:40:30;15.40;;;10.93;;
29908;SDS011;36247;51.952;6.146;2023-03-01T04:42:55;17.80;;;11.50;;
29908;SDS011;36247;51.952;6.146;2023-03-01T04:45:21;16.63;;;10.68;;
29908;SDS011;36247;51.952;6.146;2023-03-01T04:47:47;18.55;;;10.40;;
29908;SDS011;36247;51.952;6.146;2023-03-01T04:50:13;17.77;;;11.93;;
29908;SDS011;36247;51.952;6.146;2023-03-01T04:52:41;20.52;;;10.77;;
29908;SDS011;36247;51.952;6.146;2023-03-01T04:55:07;16.25;;;11.00;;
29908;SDS011;36247;51.952;6.146;2023-03-01T04:57:33;17.67;;;11.65;;
29908;SDS011;36247;51.952;6.146;2023-03-01T04:59:59;18.15;;;10.98;;
29908;SDS011;36247;51.952;6.146;2023-03-01T05:02:24;14.77;;;10.55;;
29908;SDS011;36247;51.952;6.146;2023-03-01T05:04:50;17.15;;;10.63;;
29908;SDS011;36247;51.952;6.146;2023-03-01T05:07:15;14.18;;;10.50;;
29908;SDS011;36247;51.952;6.146;2023-03-01T05:09:45;14.80;;;10.43;;
29908;SDS011;36247;51.952;6.146;2023-03-01T05:12:11;19.02;;;10.85;;
29908;SDS011;36247;51.952;6.146;2023-03-01T05:14:37;16.73;;;10.77;;
29908;SDS011;36247;51.952;6.146;2023-03-01T05:17:03;14.38;;;9.80;;
29908;SDS011;36247;51.952;6.146;2023-03-01T05:19:29;15.18;;;10.52;;
29908;SDS011;36247;51.952;6.146;2023-03-01T05:21:56;15.73;;;10.43;;
29908;SDS011;36247;51.952;6.146;2023-03-01T05:24:32;16.42;;;9.77;;
29908;SDS011;36247;51.952;6.146;2023-03-01T05:26:59;16.73;;;10.35;;
29908;SDS011;36247;51.952;6.146;2023-03-01T05:29:26;15.55;;;10.80;;
29908;SDS011;36247;51.952;6.146;2023-03-01T05:31:53;15.70;;;10.48;;
29908;SDS011;36247;51.952;6.146;2023-03-01T05:34:29;20.55;;;11.32;;
29908;SDS011;36247;51.952;6.146;2023-03-01T05:36:58;14.60;;;10.65;;
29908;SDS011;36247;51.952;6.146;2023-03-01T05:39:24;15.27;;;10.07;;
29908;SDS011;36247;51.952;6.146;2023-03-01T05:41:52;15.60;;;10.13;;
29908;SDS011;36247;51.952;6.146;2023-03-01T05:44:21;17.13;;;11.50;;
29908;SDS011;36247;51.952;6.146;2023-03-01T05:46:47;17.15;;;10.52;;
29908;SDS011;36247;51.952;6.146;2023-03-01T05:49:13;15.65;;;11.00;;
29908;SDS011;36247;51.952;6.146;2023-03-01T05:51:42;15.00;;;10.45;;
29908;SDS011;36247;51.952;6.146;2023-03-01T05:54:11;19.05;;;10.65;;
29908;SDS011;36247;51.952;6.146;2023-03-01T05:56:36;16.75;;;10.45;;
29908;SDS011;36247;51.952;6.146;2023-03-01T05:59:03;14.43;;;10.35;;
29908;SDS011;36247;51.952;6.146;2023-03-01T06:01:30;15.48;;;10.43;;
29908;SDS011;36247;51.952;6.146;2023-03-01T06:03:56;14.48;;;10.35;;
29908;SDS011;36247;51.952;6.146;2023-03-01T06:06:22;15.23;;;10.93;;
29908;SDS011;36247;51.952;6.146;2023-03-01T06:08:49;16.65;;;11.07;;
29908;SDS011;36247;51.952;6.146;2023-03-01T06:11:14;15.50;;;10.43;;
29908;SDS011;36247;51.952;6.146;2023-03-01T06:13:41;16.30;;;10.88;;
29908;SDS011;36247;51.952;6.146;2023-03-01T06:16:10;17.65;;;11.23;;
29908;SDS011;36247;51.952;6.146;2023-03-01T06:18:36;18.13;;;12.02;;
29908;SDS011;36247;51.952;6.146;2023-03-01T06:21:03;20.63;;;11.75;;
29908;SDS011;36247;51.952;6.146;2023-03-01T06:23:29;19.08;;;12.57;;
29908;SDS011;36247;51.952;6.146;2023-03-01T06:25:55;21.13;;;12.40;;
29908;SDS011;36247;51.952;6.146;2023-03-01T06:28:20;19.15;;;12.00;;
29908;SDS011;36247;51.952;6.146;2023-03-01T06:30:46;19.00;;;11.90;;
29908;SDS011;36247;51.952;6.146;2023-03-01T06:33:11;18.17;;;12.75;;
29908;SDS011;36247;51.952;6.146;2023-03-01T06:35:37;21.55;;;12.77;;
29908;SDS011;36247;51.952;6.146;2023-03-01T06:38:05;22.73;;;13.35;;
29908;SDS011;36247;51.952;6.146;2023-03-01T06:40:31;23.75;;;13.13;;
29908;SDS011;36247;51.952;6.146;2023-03-01T06:42:57;21.00;;;12.00;;
29908;SDS011;36247;51.952;6.146;2023-03-01T06:45:23;17.48;;;11.05;;
29908;SDS011;36247;51.952;6.146;2023-03-01T06:47:49;22.55;;;12.50;;
29908;SDS011;36247;51.952;6.146;2023-03-01T06:50:15;19.10;;;12.55;;
29908;SDS011;36247;51.952;6.146;2023-03-01T06:52:41;21.83;;;13.63;;
29908;SDS011;36247;51.952;6.146;2023-03-01T06:55:09;22.50;;;12.93;;
29908;SDS011;36247;51.952;6.146;2023-03-01T06:57:35;19.80;;;13.02;;
29908;SDS011;36247;51.952;6.146;2023-03-01T07:00:01;21.00;;;14.20;;
29908;SDS011;36247;51.952;6.146;2023-03-01T07:02:28;20.33;;;13.40;;
29908;SDS011;36247;51.952;6.146;2023-03-01T07:04:53;20.63;;;12.70;;
29908;SDS011;36247;51.952;6.146;2023-03-01T07:07:19;22.02;;;11.95;;
29908;SDS011;36247;51.952;6.146;2023-03-01T07:09:45;17.77;;;11.70;;
29908;SDS011;36247;51.952;6.146;2023-03-01T07:12:11;18.02;;;11.95;;
29908;SDS011;36247;51.952;6.146;2023-03-01T07:14:36;19.83;;;11.02;;
29908;SDS011;36247;51.952;6.146;2023-03-01T07:17:02;16.08;;;10.63;;
29908;SDS011;36247;51.952;6.146;2023-03-01T07:19:27;20.52;;;11.38;;
29908;SDS011;36247;51.952;6.146;2023-03-01T07:21:53;15.80;;;11.52;;
29908;SDS011;36247;51.952;6.146;2023-03-01T07:24:19;17.30;;;11.15;;
29908;SDS011;36247;51.952;6.146;2023-03-01T07:26:47;15.52;;;10.05;;
29908;SDS011;36247;51.952;6.146;2023-03-01T07:29:14;20.80;;;11.45;;
29908;SDS011;36247;51.952;6.146;2023-03-01T07:31:39;17.17;;;11.35;;
29908;SDS011;36247;51.952;6.146;2023-03-01T07:34:04;19.88;;;10.50;;
29908;SDS011;36247;51.952;6.146;2023-03-01T07:36:30;15.25;;;10.45;;
29908;SDS011;36247;51.952;6.146;2023-03-01T07:38:55;19.77;;;11.32;;
29908;SDS011;36247;51.952;6.146;2023-03-01T07:41:21;14.18;;;9.90;;
29908;SDS011;36247;51.952;6.146;2023-03-01T07:43:47;14.82;;;10.57;;
29908;SDS011;36247;51.952;6.146;2023-03-01T07:46:12;16.30;;;10.07;;
29908;SDS011;36247;51.952;6.146;2023-03-01T07:48:38;18.20;;;11.40;;
29908;SDS011;36247;51.952;6.146;2023-03-01T07:51:04;13.38;;;10.18;;
29908;SDS011;36247;51.952;6.146;2023-03-01T07:53:31;20.05;;;11.10;;
29908;SDS011;36247;51.952;6.146;2023-03-01T07:56:08;18.02;;;10.80;;
29908;SDS011;36247;51.952;6.146;2023-03-01T07:58:37;20.50;;;11.52;;
29908;SDS011;36247;51.952;6.146;2023-03-01T08:01:04;12.77;;;10.25;;
29908;SDS011;36247;51.952;6.146;2023-03-01T08:03:31;13.68;;;9.07;;
29908;SDS011;36247;51.952;6.146;2023-03-01T08:05:59;14.48;;;9.77;;
29908;SDS011;36247;51.952;6.146;2023-03-01T08:08:25;14.05;;;9.80;;
29908;SDS011;36247;51.952;6.146;2023-03-01T08:10:50;12.68;;;8.75;;
29908;SDS011;36247;51.952;6.146;2023-03-01T08:13:16;11.93;;;8.90;;
29908;SDS011;36247;51.952;6.146;2023-03-01T08:15:43;13.27;;;9.65;;
29908;SDS011;36247;51.952;6.146;2023-03-01T08:18:09;13.38;;;8.90;;
29908;SDS011;36247;51.952;6.146;2023-03-01T08:20:34;12.95;;;8.88;;
29908;SDS011;36247;51.952;6.146;2023-03-01T08:23:00;16.17;;;9.07;;
29908;SDS011;36247;51.952;6.146;2023-03-01T08:25:25;12.50;;;8.85;;
29908;SDS011;36247;51.952;6.146;2023-03-01T08:27:50;12.18;;;9.07;;
29908;SDS011;36247;51.952;6.146;2023-03-01T08:30:16;13.68;;;8.90;;
29908;SDS011;36247;51.952;6.146;2023-03-01T08:32:41;11.85;;;9.55;;
29908;SDS011;36247;51.952;6.146;2023-03-01T08:35:07;17.35;;;9.38;;
29908;SDS011;36247;51.952;6.146;2023-03-01T08:37:32;12.85;;;9.57;;
29908;SDS011;36247;51.952;6.146;2023-03-01T08:39:59;16.02;;;9.55;;
29908;SDS011;36247;51.952;6.146;2023-03-01T08:42:25;12.77;;;10.18;;
29908;SDS011;36247;51.952;6.146;2023-03-01T08:44:51;13.40;;;9.32;;
29908;SDS011;36247;51.952;6.146;2023-03-01T08:47:16;11.77;;;8.90;;
29908;SDS011;36247;51.952;6.146;2023-03-01T08:49:42;11.60;;;9.20;;
29908;SDS011;36247;51.952;6.146;2023-03-01T08:52:07;14.88;;;9.10;;
29908;SDS011;36247;51.952;6.146;2023-03-01T08:54:33;14.43;;;8.70;;
29908;SDS011;36247;51.952;6.146;2023-03-01T08:57:00;13.45;;;9.05;;
29908;SDS011;36247;51.952;6.146;2023-03-01T08:59:27;13.38;;;8.48;;
29908;SDS011;36247;51.952;6.146;2023-03-01T09:01:54;14.30;;;9.23;;
29908;SDS011;36247;51.952;6.146;2023-03-01T09:04:19;15.02;;;9.25;;
29908;SDS011;36247;51.952;6.146;2023-03-01T09:06:45;14.90;;;8.65;;
29908;SDS011;36247;51.952;6.146;2023-03-01T09:09:12;11.00;;;8.35;;
29908;SDS011;36247;51.952;6.146;2023-03-01T09:11:41;14.57;;;8.27;;
29908;SDS011;36247;51.952;6.146;2023-03-01T09:14:07;15.75;;;8.13;;
29908;SDS011;36247;51.952;6.146;2023-03-01T09:16:32;14.93;;;8.80;;
29908;SDS011;36247;51.952;6.146;2023-03-01T09:19:01;12.93;;;8.68;;
29908;SDS011;36247;51.952;6.146;2023-03-01T09:21:27;9.27;;;7.32;;
29908;SDS011;36247;51.952;6.146;2023-03-01T09:23:52;11.38;;;7.97;;
29908;SDS011;36247;51.952;6.146;2023-03-01T09:26:19;11.80;;;7.60;;
29908;SDS011;36247;51.952;6.146;2023-03-01T09:28:49;13.30;;;7.72;;
29908;SDS011;36247;51.952;6.146;2023-03-01T09:31:21;12.05;;;8.90;;
29908;SDS011;36247;51.952;6.146;2023-03-01T09:33:49;14.27;;;9.55;;
29908;SDS011;36247;51.952;6.146;2023-03-01T09:36:21;15.70;;;10.02;;
29908;SDS011;36247;51.952;6.146;2023-03-01T09:38:48;16.15;;;9.43;;
29908;SDS011;36247;51.952;6.146;2023-03-01T09:41:22;18.73;;;10.90;;
29908;SDS011;36247;51.952;6.146;2023-03-01T09:44:10;25.65;;;13.75;;
29908;SDS011;36247;51.952;6.146;2023-03-01T09:46:43;27.48;;;13.05;;
29908;SDS011;36247;51.952;6.146;2023-03-01T09:49:14;19.40;;;11.02;;
29908;SDS011;36247;51.952;6.146;2023-03-01T09:51:43;20.02;;;11.48;;
29908;SDS011;36247;51.952;6.146;2023-03-01T09:54:19;18.48;;;9.77;;
29908;SDS011;36247;51.952;6.146;2023-03-01T10:10:54;11.15;;;7.55;;
29908;SDS011;36247;51.952;6.146;2023-03-01T10:13:33;8.80;;;6.18;;
29908;SDS011;36247;51.952;6.146;2023-03-01T10:18:41;12.55;;;7.35;;
29908;SDS011;36247;51.952;6.146;2023-03-01T10:23:41;10.73;;;7.25;;
29908;SDS011;36247;51.952;6.146;2023-03-01T10:29:02;8.18;;;6.82;;
29908;SDS011;36247;51.952;6.146;2023-03-01T10:31:42;8.25;;;6.35;;
29908;SDS011;36247;51.952;6.146;2023-03-01T10:34:10;8.75;;;6.45;;
29908;SDS011;36247;51.952;6.146;2023-03-01T10:36:40;9.10;;;6.07;;
29908;SDS011;36247;51.952;6.146;2023-03-01T10:39:12;9.95;;;5.97;;
29908;SDS011;36247;51.952;6.146;2023-03-01T10:44:36;11.50;;;7.50;;
29908;SDS011;36247;51.952;6.146;2023-03-01T10:47:04;8.15;;;6.05;;
29908;SDS011;36247;51.952;6.146;2023-03-01T10:49:29;9.23;;;6.85;;
29908;SDS011;36247;51.952;6.146;2023-03-01T10:51:55;8.73;;;6.03;;
29908;SDS011;36247;51.952;6.146;2023-03-01T10:54:31;7.70;;;6.03;;
29908;SDS011;36247;51.952;6.146;2023-03-01T10:56:59;9.63;;;6.07;;
29908;SDS011;36247;51.952;6.146;2023-03-01T10:59:33;8.02;;;6.35;;
29908;SDS011;36247;51.952;6.146;2023-03-01T11:02:43;10.38;;;6.32;;
29908;SDS011;36247;51.952;6.146;2023-03-01T11:05:13;8.98;;;7.30;;
29908;SDS011;36247;51.952;6.146;2023-03-01T11:10:23;9.18;;;6.85;;
29908;SDS011;36247;51.952;6.146;2023-03-01T11:12:49;9.05;;;6.68;;
29908;SDS011;36247;51.952;6.146;2023-03-01T11:15:20;8.70;;;6.13;;
29908;SDS011;36247;51.952;6.146;2023-03-01T11:17:50;7.78;;;5.72;;
29908;SDS011;36247;51.952;6.146;2023-03-01T11:20:33;10.75;;;6.80;;
29908;SDS011;36247;51.952;6.146;2023-03-01T11:23:02;8.85;;;6.30;;
29908;SDS011;36247;51.952;6.146;2023-03-01T11:25:54;18.35;;;7.00;;
29908;SDS011;36247;51.952;6.146;2023-03-01T11:28:21;7.85;;;6.60;;
29908;SDS011;36247;51.952;6.146;2023-03-01T11:30:53;10.13;;;6.97;;
29908;SDS011;36247;51.952;6.146;2023-03-01T11:38:53;8.23;;;5.88;;
29908;SDS011;36247;51.952;6.146;2023-03-01T11:41:20;9.73;;;7.25;;
29908;SDS011;36247;51.952;6.146;2023-03-01T11:43:59;10.82;;;6.45;;
29908;SDS011;36247;51.952;6.146;2023-03-01T11:54:04;8.25;;;7.00;;
29908;SDS011;36247;51.952;6.146;2023-03-01T11:56:32;8.32;;;6.85;;
29908;SDS011;36247;51.952;6.146;2023-03-01T12:10:56;8.00;;;6.70;;
29908;SDS011;36247;51.952;6.146;2023-03-01T12:16:00;8.38;;;7.20;;
29908;SDS011;36247;51.952;6.146;2023-03-01T12:21:26;8.18;;;6.78;;
29908;SDS011;36247;51.952;6.146;2023-03-01T12:26:55;8.00;;;6.60;;
29908;SDS011;36247;51.952;6.146;2023-03-01T12:29:57;9.45;;;6.75;;
29908;SDS011;36247;51.952;6.146;2023-03-01T12:32:45;9.18;;;6.30;;
29908;SDS011;36247;51.952;6.146;2023-03-01T12:38:20;8.85;;;6.15;;
29908;SDS011;36247;51.952;6.146;2023-03-01T12:41:01;10.32;;;6.18;;
29908;SDS011;36247;51.952;6.146;2023-03-01T12:51:30;7.43;;;6.00;;
29908;SDS011;36247;51.952;6.146;2023-03-01T12:53:58;10.07;;;6.82;;
29908;SDS011;36247;51.952;6.146;2023-03-01T12:56:30;10.07;;;6.32;;
29908;SDS011;36247;51.952;6.146;2023-03-01T13:01:40;7.85;;;6.72;;
29908;SDS011;36247;51.952;6.146;2023-03-01T13:07:36;8.55;;;7.00;;
29908;SDS011;36247;51.952;6.146;2023-03-01T13:10:24;9.30;;;6.75;;
29908;SDS011;36247;51.952;6.146;2023-03-01T13:17:47;8.98;;;6.85;;
29908;SDS011;36247;51.952;6.146;2023-03-01T13:20:15;9.70;;;7.32;;
29908;SDS011;36247;51.952;6.146;2023-03-01T13:22:43;13.18;;;8.20;;
29908;SDS011;36247;51.952;6.146;2023-03-01T13:25:12;10.25;;;7.15;;
29908;SDS011;36247;51.952;6.146;2023-03-01T13:27:41;10.05;;;7.45;;
29908;SDS011;36247;51.952;6.146;2023-03-01T13:35:52;8.70;;;6.97;;
29908;SDS011;36247;51.952;6.146;2023-03-01T13:41:12;10.48;;;6.47;;
29908;SDS011;36247;51.952;6.146;2023-03-01T13:43:40;10.05;;;6.68;;
29908;SDS011;36247;51.952;6.146;2023-03-01T13:46:11;10.40;;;6.43;;
29908;SDS011;36247;51.952;6.146;2023-03-01T13:48:52;8.73;;;6.38;;
29908;SDS011;36247;51.952;6.146;2023-03-01T13:51:23;9.48;;;7.25;;
29908;SDS011;36247;51.952;6.146;2023-03-01T13:53:52;9.93;;;6.93;;
29908;SDS011;36247;51.952;6.146;2023-03-01T13:56:27;11.30;;;6.88;;
29908;SDS011;36247;51.952;6.146;2023-03-01T13:58:59;9.20;;;6.45;;
29908;SDS011;36247;51.952;6.146;2023-03-01T14:01:30;10.65;;;7.35;;
29908;SDS011;36247;51.952;6.146;2023-03-01T14:03:59;9.30;;;6.63;;
29908;SDS011;36247;51.952;6.146;2023-03-01T14:06:27;8.70;;;6.28;;
29908;SDS011;36247;51.952;6.146;2023-03-01T14:09:28;9.02;;;6.82;;
29908;SDS011;36247;51.952;6.146;2023-03-01T14:12:02;8.95;;;6.47;;
29908;SDS011;36247;51.952;6.146;2023-03-01T14:14:45;8.75;;;7.05;;
29908;SDS011;36247;51.952;6.146;2023-03-01T14:19:43;8.52;;;7.25;;
29908;SDS011;36247;51.952;6.146;2023-03-01T14:22:25;8.73;;;6.95;;
29908;SDS011;36247;51.952;6.146;2023-03-01T14:24:55;8.88;;;7.10;;
29908;SDS011;36247;51.952;6.146;2023-03-01T14:27:34;11.27;;;6.95;;
29908;SDS011;36247;51.952;6.146;2023-03-01T14:30:11;7.75;;;6.40;;
29908;SDS011;36247;51.952;6.146;2023-03-01T14:32:38;8.82;;;7.05;;
29908;SDS011;36247;51.952;6.146;2023-03-01T14:35:18;10.15;;;6.85;;
29908;SDS011;36247;51.952;6.146;2023-03-01T14:37:45;7.72;;;6.35;;
29908;SDS011;36247;51.952;6.146;2023-03-01T14:40:19;8.70;;;6.28;;
29908;SDS011;36247;51.952;6.146;2023-03-01T14:43:09;8.75;;;6.72;;
29908;SDS011;36247;51.952;6.146;2023-03-01T14:45:37;7.97;;;6.88;;
29908;SDS011;36247;51.952;6.146;2023-03-01T14:48:03;14.05;;;6.90;;
29908;SDS011;36247;51.952;6.146;2023-03-01T14:50:31;7.82;;;6.50;;
29908;SDS011;36247;51.952;6.146;2023-03-01T14:52:59;9.98;;;6.45;;
29908;SDS011;36247;51.952;6.146;2023-03-01T14:55:34;7.72;;;6.45;;
29908;SDS011;36247;51.952;6.146;2023-03-01T14:58:03;9.10;;;6.68;;
29908;SDS011;36247;51.952;6.146;2023-03-01T15:00:31;8.25;;;7.38;;
29908;SDS011;36247;51.952;6.146;2023-03-01T15:03:07;8.30;;;6.70;;
29908;SDS011;36247;51.952;6.146;2023-03-01T15:05:40;7.40;;;6.03;;
29908;SDS011;36247;51.952;6.146;2023-03-01T15:08:08;9.02;;;7.32;;
29908;SDS011;36247;51.952;6.146;2023-03-01T15:10:55;8.95;;;6.55;;
29908;SDS011;36247;51.952;6.146;2023-03-01T15:13:44;9.65;;;6.63;;
29908;SDS011;36247;51.952;6.146;2023-03-01T15:16:13;8.63;;;6.25;;
29908;SDS011;36247;51.952;6.146;2023-03-01T15:18:49;8.05;;;6.30;;
29908;SDS011;36247;51.952;6.146;2023-03-01T15:24:32;10.05;;;6.45;;
29908;SDS011;36247;51.952;6.146;2023-03-01T15:29:30;9.23;;;6.07;;
29908;SDS011;36247;51.952;6.146;2023-03-01T15:32:02;7.20;;;6.13;;
29908;SDS011;36247;51.952;6.146;2023-03-01T15:34:33;7.45;;;6.50;;
29908;SDS011;36247;51.952;6.146;2023-03-01T15:37:02;9.70;;;5.82;;
29908;SDS011;36247;51.952;6.146;2023-03-01T15:39:43;7.65;;;5.82;;
29908;SDS011;36247;51.952;6.146;2023-03-01T15:44:50;6.93;;;5.45;;
29908;SDS011;36247;51.952;6.146;2023-03-01T15:47:38;7.40;;;5.40;;
29908;SDS011;36247;51.952;6.146;2023-03-01T15:50:05;7.35;;;6.03;;
29908;SDS011;36247;51.952;6.146;2023-03-01T15:52:42;9.65;;;5.70;;
29908;SDS011;36247;51.952;6.146;2023-03-01T15:55:21;7.25;;;5.80;;
29908;SDS011;36247;51.952;6.146;2023-03-01T15:57:49;10.10;;;6.38;;
29908;SDS011;36247;51.952;6.146;2023-03-01T16:02:48;9.52;;;6.13;;
29908;SDS011;36247;51.952;6.146;2023-03-01T16:05:21;6.55;;;5.38;;
29908;SDS011;36247;51.952;6.146;2023-03-01T16:07:48;6.63;;;5.07;;
29908;SDS011;36247;51.952;6.146;2023-03-01T16:10:14;7.32;;;5.00;;
29908;SDS011;36247;51.952;6.146;2023-03-01T16:12:40;6.25;;;4.80;;
29908;SDS011;36247;51.952;6.146;2023-03-01T16:15:12;7.60;;;6.07;;
29908;SDS011;36247;51.952;6.146;2023-03-01T16:17:44;7.93;;;5.85;;
29908;SDS011;36247;51.952;6.146;2023-03-01T16:20:20;7.63;;;6.15;;
29908;SDS011;36247;51.952;6.146;2023-03-01T16:22:49;8.68;;;5.82;;
29908;SDS011;36247;51.952;6.146;2023-03-01T16:25:15;6.13;;;4.70;;
29908;SDS011;36247;51.952;6.146;2023-03-01T16:27:46;6.85;;;4.88;;
29908;SDS011;36247;51.952;6.146;2023-03-01T16:30:14;7.22;;;5.30;;
29908;SDS011;36247;51.952;6.146;2023-03-01T16:32:41;6.95;;;5.55;;
29908;SDS011;36247;51.952;6.146;2023-03-01T16:35:09;8.63;;;6.05;;
29908;SDS011;36247;51.952;6.146;2023-03-01T16:37:37;7.07;;;5.20;;